createdAt,value
2022-08-04T00:00:31.615Z,61.12
2022-08-04T00:03:16.424Z,61.07
2022-08-04T00:06:03.613Z,60.99
2022-08-04T00:08:58.419Z,60.75
2022-08-04T00:11:31.471Z,60.50
2022-08-04T00:14:11.254Z,60.63
2022-08-04T00:16:40.870Z,60.44
2022-08-04T00:19:31.946Z,59.93
2022-08-04T00:22:05.295Z,59.84
2022-08-04T00:24:34.000Z,60.28
2022-08-04T00:27:01.491Z,60.25
2022-08-04T00:29:29.238Z,59.39
2022-08-04T00:31:57.921Z,59.58
2022-08-04T00:34:31.415Z,60.05
2022-08-04T00:36:58.801Z,59.96
2022-08-04T00:39:26.985Z,59.58
2022-08-04T00:42:18.141Z,59.59
2022-08-04T00:45:22.532Z,59.36
2022-08-04T00:48:12.911Z,59.18
2022-08-04T00:50:50.519Z,59.42
2022-08-04T00:53:53.211Z,58.95
2022-08-04T00:56:49.288Z,58.72
2022-08-04T00:59:42.397Z,59.22
2022-08-04T01:02:35.331Z,59.20
2022-08-04T01:05:40.079Z,59.04
2022-08-04T01:08:28.529Z,59.05
2022-08-04T01:11:56.887Z,59.08
2022-08-04T01:15:01.147Z,59.38
2022-08-04T01:18:07.637Z,59.13
2022-08-04T01:21:06.808Z,59.01
2022-08-04T01:24:17.177Z,58.74
2022-08-04T01:27:09.614Z,59.09
2022-08-04T01:29:50.143Z,58.79
2022-08-04T01:32:32.307Z,58.17
2022-08-04T01:35:47.192Z,58.13
2022-08-04T01:38:37.527Z,57.96
2022-08-04T01:41:07.925Z,58.11
2022-08-04T01:43:40.794Z,58.23
2022-08-04T01:46:14.225Z,57.73
2022-08-04T01:48:51.249Z,57.75
2022-08-04T01:51:22.037Z,57.92
2022-08-04T01:53:49.043Z,57.89
2022-08-04T01:56:17.221Z,57.30
2022-08-04T01:58:44.208Z,56.85
2022-08-04T02:01:13.650Z,57.41
2022-08-04T02:04:21.272Z,57.31
2022-08-04T02:06:44.356Z,56.62
2022-08-04T02:09:30.446Z,56.20
2022-08-04T02:12:52.143Z,56.62
2022-08-04T02:16:17.306Z,56.63
2022-08-04T02:19:00.271Z,56.27
2022-08-04T02:21:42.524Z,56.66
2022-08-04T02:24:16.353Z,56.56
2022-08-04T02:26:50.385Z,56.18
2022-08-04T02:29:40.586Z,55.85
2022-08-04T02:32:22.210Z,55.88
2022-08-04T02:34:54.724Z,55.90
2022-08-04T02:37:24.336Z,56.05
2022-08-04T02:39:54.374Z,55.50
2022-08-04T02:42:22.748Z,55.33
2022-08-04T02:44:51.953Z,54.96
2022-08-04T02:47:22.330Z,54.80
2022-08-04T02:49:51.989Z,55.39
2022-08-04T02:52:21.138Z,55.17
2022-08-04T02:54:53.413Z,55.06
2022-08-04T02:57:26.879Z,54.65
2022-08-04T03:00:20.421Z,55.40
2022-08-04T03:03:26.489Z,55.76
2022-08-04T03:06:44.519Z,55.61
2022-08-04T03:09:48.245Z,54.92
2022-08-04T03:12:59.092Z,55.81
2022-08-04T03:16:08.311Z,55.35
2022-08-04T03:19:43.445Z,55.68
2022-08-04T03:23:12.061Z,55.47
2022-08-04T03:26:04.545Z,55.33
2022-08-04T03:29:36.105Z,55.35
2022-08-04T03:33:13.493Z,55.72
2022-08-04T03:36:08.918Z,55.38
2022-08-04T03:39:03.466Z,54.62
2022-08-04T03:42:03.998Z,53.48
2022-08-04T03:45:23.195Z,52.32
2022-08-04T03:48:27.863Z,52.70
2022-08-04T03:51:53.109Z,52.58
2022-08-04T03:55:16.795Z,53.60
2022-08-04T03:58:40.765Z,52.98
2022-08-04T04:02:02.904Z,52.50
2022-08-04T04:05:01.041Z,49.46
2022-08-04T04:08:01.729Z,47.89
2022-08-04T04:10:49.333Z,45.14
2022-08-04T04:13:42.030Z,43.26
2022-08-04T04:16:17.499Z,41.56
2022-08-04T04:19:31.636Z,39.73
2022-08-04T04:22:13.137Z,37.72
2022-08-04T04:25:03.100Z,36.25
2022-08-04T04:28:44.525Z,34.09
2022-08-04T04:31:15.913Z,33.38
2022-08-04T04:34:17.011Z,32.05
2022-08-04T04:36:46.712Z,31.22
2022-08-04T04:39:20.412Z,30.42
2022-08-04T04:42:17.291Z,32.39
2022-08-04T04:45:05.875Z,35.41
2022-08-04T04:48:07.191Z,34.56
2022-08-04T04:51:16.444Z,32.23
2022-08-04T04:54:01.275Z,32.06
2022-08-04T04:56:58.002Z,33.96
2022-08-04T04:59:33.810Z,30.93
2022-08-04T05:02:31.318Z,27.84
2022-08-04T05:05:19.767Z,29.02
2022-08-04T05:07:46.690Z,27.15
2022-08-04T05:10:50.460Z,24.85
2022-08-04T05:14:37.034Z,25.13
2022-08-04T05:16:55.630Z,23.50
2022-08-04T05:20:01.185Z,22.42
2022-08-04T05:22:54.259Z,23.14
2022-08-04T05:25:59.535Z,21.81
2022-08-04T05:28:45.431Z,21.64
2022-08-04T05:31:20.196Z,22.56
2022-08-04T05:34:00.775Z,23.88
2022-08-04T05:36:46.611Z,27.56
2022-08-04T05:39:34.151Z,29.68
2022-08-04T05:42:04.702Z,28.57
2022-08-04T05:44:33.916Z,26.65
2022-08-04T05:47:04.290Z,25.91
2022-08-04T05:49:32.878Z,25.07
2022-08-04T05:52:05.053Z,24.10
2022-08-04T05:54:35.411Z,25.38
2022-08-04T05:57:08.681Z,27.14
2022-08-04T05:59:42.311Z,24.98
2022-08-04T06:02:10.482Z,24.90
2022-08-04T06:04:43.561Z,24.97
2022-08-04T06:07:11.417Z,23.35
2022-08-04T06:09:38.672Z,22.37
2022-08-04T06:12:14.627Z,21.95
2022-08-04T06:14:47.760Z,22.08
2022-08-04T06:18:35.217Z,20.65
2022-08-04T06:20:19.245Z,19.51
2022-08-04T06:22:54.567Z,18.57
2022-08-04T06:25:29.679Z,19.64
2022-08-04T06:27:58.004Z,18.62
2022-08-04T06:30:28.424Z,18.32
2022-08-04T06:33:03.381Z,18.96
2022-08-04T06:35:33.237Z,18.35
2022-08-04T06:38:01.939Z,18.78
2022-08-04T06:40:33.329Z,18.60
2022-08-04T06:43:07.278Z,18.01
2022-08-04T06:45:37.407Z,17.65
2022-08-04T06:48:06.839Z,17.91
2022-08-04T06:51:31.439Z,17.77
2022-08-04T06:53:26.205Z,17.69
2022-08-04T06:55:55.829Z,16.75
2022-08-04T06:58:24.719Z,17.30
2022-08-04T07:00:52.983Z,16.21
2022-08-04T07:03:22.079Z,16.55
2022-08-04T07:05:51.238Z,16.37
2022-08-04T07:08:19.201Z,16.52
2022-08-04T07:10:46.991Z,16.33
2022-08-04T07:13:14.685Z,16.52
2022-08-04T07:15:46.743Z,16.18
2022-08-04T07:18:13.952Z,16.21
2022-08-04T07:20:43.701Z,16.18
2022-08-04T07:23:17.455Z,16.69
2022-08-04T07:25:59.022Z,15.93
2022-08-04T07:28:30.970Z,16.47
2022-08-04T07:30:58.900Z,17.32
2022-08-04T07:33:26.153Z,16.63
2022-08-04T07:36:08.353Z,17.26
2022-08-04T07:38:48.284Z,17.13
2022-08-04T07:41:43.294Z,18.36
2022-08-04T07:44:15.756Z,19.20
2022-08-04T07:46:45.692Z,19.80
2022-08-04T07:49:12.924Z,20.28
2022-08-04T07:52:01.913Z,20.26
2022-08-04T07:54:29.336Z,20.85
2022-08-04T07:56:56.840Z,20.50
2022-08-04T07:59:24.944Z,20.79
2022-08-04T08:01:53.226Z,20.96
2022-08-04T08:04:21.924Z,21.43
2022-08-04T08:06:49.063Z,22.46
2022-08-04T08:09:24.026Z,22.65
2022-08-04T08:12:38.285Z,22.47
2022-08-04T08:14:41.325Z,22.47
2022-08-04T08:17:08.470Z,22.06
2022-08-04T08:19:36.265Z,21.02
2022-08-04T08:22:04.485Z,20.88
2022-08-04T08:24:36.024Z,20.49
2022-08-04T08:27:04.910Z,21.26
2022-08-04T08:29:35.254Z,21.89
2022-08-04T08:32:08.871Z,22.34
2022-08-04T08:34:38.025Z,22.96
2022-08-04T08:37:30.881Z,21.96
2022-08-04T08:40:46.678Z,21.87
2022-08-04T08:44:30.124Z,21.69
2022-08-04T08:48:05.240Z,21.72
2022-08-04T08:50:51.131Z,22.21
2022-08-04T08:54:08.547Z,23.57
2022-08-04T08:57:00.451Z,23.40
2022-08-04T08:59:53.555Z,24.11
2022-08-04T09:03:04.543Z,23.78
2022-08-04T09:05:43.871Z,23.84
2022-08-04T09:08:55.656Z,24.56
2022-08-04T09:11:48.444Z,24.65
2022-08-04T09:14:26.159Z,25.40
2022-08-04T09:17:03.084Z,25.99
2022-08-04T09:19:45.892Z,26.22
2022-08-04T09:22:45.081Z,25.40
2022-08-04T09:25:18.558Z,24.43
2022-08-04T09:27:55.681Z,25.21
2022-08-04T09:30:36.950Z,25.21
2022-08-04T09:33:45.816Z,25.00
2022-08-04T09:36:37.414Z,24.76
2022-08-04T09:39:37.534Z,24.81
2022-08-04T09:42:33.834Z,25.68
2022-08-04T09:45:26.572Z,26.13
2022-08-04T09:48:44.495Z,27.03
2022-08-04T09:51:57.934Z,26.43
2022-08-04T09:54:44.459Z,25.61
2022-08-04T09:57:41.776Z,25.65
2022-08-04T10:00:13.630Z,25.87
2022-08-04T10:02:49.594Z,25.78
2022-08-04T10:05:38.806Z,25.99
2022-08-04T10:08:44.471Z,26.43
2022-08-04T10:11:54.509Z,27.66
2022-08-04T10:15:06.734Z,27.66
2022-08-04T10:18:24.809Z,28.26
2022-08-04T10:21:14.855Z,27.43
2022-08-04T10:24:15.126Z,28.88
2022-08-04T10:27:08.135Z,28.48
2022-08-04T10:29:44.747Z,28.05
2022-08-04T10:32:43.941Z,27.72
2022-08-04T10:35:24.173Z,27.32
2022-08-04T10:38:13.422Z,27.54
2022-08-04T10:40:48.351Z,27.16
2022-08-04T10:44:00.259Z,26.97
2022-08-04T10:46:57.558Z,27.65
2022-08-04T10:49:30.489Z,27.53
2022-08-04T10:52:33.906Z,27.36
2022-08-04T10:56:06.450Z,26.98
2022-08-04T10:58:47.721Z,27.22
2022-08-04T11:01:50.674Z,27.34
2022-08-04T11:04:47.595Z,27.37
2022-08-04T11:07:17.167Z,27.36
2022-08-04T11:09:45.393Z,27.48
2022-08-04T11:12:25.613Z,28.01
2022-08-04T11:15:18.816Z,28.35
2022-08-04T11:17:55.411Z,27.56
2022-08-04T11:20:43.672Z,27.87
2022-08-04T11:23:22.183Z,28.25
2022-08-04T11:26:15.662Z,28.83
2022-08-04T11:29:09.505Z,29.82
2022-08-04T11:31:41.758Z,29.16
2022-08-04T11:34:20.096Z,29.06
2022-08-04T11:37:00.409Z,29.08
2022-08-04T11:39:56.049Z,28.90
2022-08-04T11:42:33.969Z,28.94
2022-08-04T11:45:08.072Z,29.53
2022-08-04T11:48:17.228Z,29.85
2022-08-04T11:50:53.952Z,30.48
2022-08-04T11:53:25.466Z,30.02
2022-08-04T11:56:07.791Z,31.52
2022-08-04T11:58:38.103Z,31.12
2022-08-04T12:02:02.702Z,30.54
2022-08-04T12:05:00.352Z,31.04
2022-08-04T12:07:41.960Z,31.55
2022-08-04T12:10:41.855Z,31.16
2022-08-04T12:13:42.080Z,31.44
2022-08-04T12:16:11.853Z,31.62
2022-08-04T12:18:45.729Z,31.82
2022-08-04T12:21:35.097Z,31.69
2022-08-04T12:24:08.645Z,31.79
2022-08-04T12:26:42.927Z,32.11
2022-08-04T12:29:15.208Z,31.66
2022-08-04T12:31:51.122Z,32.05
2022-08-04T12:34:35.446Z,31.39
2022-08-04T12:37:47.538Z,31.47
2022-08-04T12:40:30.605Z,31.13
2022-08-04T12:43:11.537Z,31.29
2022-08-04T12:45:48.967Z,31.33
2022-08-04T12:48:21.386Z,31.61
2022-08-04T12:50:56.839Z,30.83
2022-08-04T12:53:51.121Z,31.66
2022-08-04T12:56:28.425Z,31.14
2022-08-04T12:59:06.273Z,31.57
2022-08-04T13:02:08.920Z,31.29
2022-08-04T13:04:38.311Z,30.57
2022-08-04T13:07:15.323Z,30.90
2022-08-04T13:09:43.483Z,31.52
2022-08-04T13:12:32.882Z,31.66
2022-08-04T13:15:18.611Z,31.69
2022-08-04T13:18:04.328Z,31.35
2022-08-04T13:20:35.519Z,30.47
2022-08-04T13:23:15.184Z,30.44
2022-08-04T13:26:43.810Z,31.24
2022-08-04T13:28:44.998Z,31.70
2022-08-04T13:31:26.702Z,31.42
2022-08-04T13:34:08.192Z,30.98
2022-08-04T13:36:48.081Z,31.67
2022-08-04T13:39:19.969Z,31.75
2022-08-04T13:41:54.467Z,31.37
2022-08-04T13:44:31.765Z,31.52
2022-08-04T13:47:14.149Z,31.81
2022-08-04T13:49:54.531Z,32.04
2022-08-04T13:52:28.347Z,31.76
2022-08-04T13:54:55.333Z,31.09
2022-08-04T13:57:32.075Z,30.64
2022-08-04T14:00:08.831Z,31.36
2022-08-04T14:03:19.089Z,31.35
2022-08-04T14:06:35.158Z,30.87
2022-08-04T14:09:21.460Z,30.83
2022-08-04T14:12:12.614Z,30.42
2022-08-04T14:14:53.923Z,30.87
2022-08-04T14:17:30.211Z,31.10
2022-08-04T14:20:01.180Z,30.49
2022-08-04T14:22:29.059Z,30.67
2022-08-04T14:25:15.418Z,30.54
2022-08-04T14:27:57.323Z,30.18
2022-08-04T14:30:38.079Z,30.52
2022-08-04T14:34:03.819Z,30.69
2022-08-04T14:36:04.238Z,31.60
2022-08-04T14:38:48.171Z,31.37
2022-08-04T14:41:17.178Z,30.96
2022-08-04T14:43:49.227Z,31.02
2022-08-04T14:46:16.581Z,30.89
2022-08-04T14:49:13.018Z,30.84
2022-08-04T14:51:55.190Z,30.50
2022-08-04T14:54:34.637Z,30.73
2022-08-04T14:57:06.273Z,30.45
2022-08-04T14:59:58.977Z,30.51
2022-08-04T15:02:29.822Z,30.03
2022-08-04T15:04:58.896Z,30.27
2022-08-04T15:07:26.905Z,30.95
2022-08-04T15:09:54.855Z,30.79
2022-08-04T15:12:22.713Z,31.02
2022-08-04T15:14:50.020Z,30.64
2022-08-04T15:17:29.848Z,30.85
2022-08-04T15:19:58.367Z,30.76
2022-08-04T15:22:25.608Z,31.21
2022-08-04T15:24:55.378Z,30.55
2022-08-04T15:27:29.904Z,30.41
2022-08-04T15:30:09.825Z,30.50
2022-08-04T15:32:41.718Z,31.03
2022-08-04T15:35:23.279Z,31.27
2022-08-04T15:38:15.217Z,30.59
2022-08-04T15:41:01.868Z,31.02
2022-08-04T15:43:59.341Z,31.30
2022-08-04T15:46:49.616Z,30.52
2022-08-04T15:49:22.766Z,30.82
2022-08-04T15:52:04.842Z,30.93
2022-08-04T15:54:42.351Z,31.10
2022-08-04T15:58:01.530Z,30.80
2022-08-04T16:00:28.849Z,31.51
2022-08-04T16:02:56.070Z,31.43
2022-08-04T16:05:23.489Z,31.46
2022-08-04T16:08:13.026Z,31.29
2022-08-04T16:10:43.614Z,31.18
2022-08-04T16:13:23.531Z,32.07
2022-08-04T16:16:03.207Z,31.57
2022-08-04T16:18:30.652Z,31.37
2022-08-04T16:21:08.580Z,31.64
2022-08-04T16:23:56.841Z,31.76
2022-08-04T16:26:45.406Z,31.87
2022-08-04T16:29:34.526Z,32.08
2022-08-04T16:32:18.426Z,32.14
2022-08-04T16:35:04.238Z,31.49
2022-08-04T16:37:40.695Z,32.09
2022-08-04T16:40:39.556Z,32.43
2022-08-04T16:43:15.616Z,31.89
2022-08-04T16:46:05.114Z,31.65
2022-08-04T16:48:35.009Z,32.27
2022-08-04T16:51:06.759Z,31.92
2022-08-04T16:54:02.663Z,31.84
2022-08-04T16:56:37.455Z,32.21
2022-08-04T16:59:13.233Z,32.18
2022-08-04T17:01:48.121Z,31.25
2022-08-04T17:04:15.675Z,31.41
2022-08-04T17:06:46.361Z,31.42
2022-08-04T17:09:18.918Z,31.19
2022-08-04T17:11:48.345Z,31.72
2022-08-04T17:14:26.463Z,31.01
2022-08-04T17:16:57.045Z,31.23
2022-08-04T17:19:26.396Z,30.59
2022-08-04T17:22:06.081Z,30.89
2022-08-04T17:24:40.673Z,31.65
2022-08-04T17:28:09.616Z,31.44
2022-08-04T17:29:55.757Z,31.64
2022-08-04T17:32:23.919Z,32.10
2022-08-04T17:34:55.208Z,31.96
2022-08-04T17:37:39.169Z,32.83
2022-08-04T17:40:18.270Z,32.41
2022-08-04T17:44:04.811Z,32.44
2022-08-04T17:46:41.281Z,33.10
2022-08-04T17:49:16.592Z,34.11
2022-08-04T17:52:04.931Z,34.25
2022-08-04T17:57:23.713Z,34.25
2022-08-04T17:59:59.159Z,34.85
2022-08-04T18:02:32.266Z,34.60
2022-08-04T18:05:12.360Z,35.03
2022-08-04T18:08:41.416Z,35.45
2022-08-04T18:10:51.669Z,35.33
2022-08-04T18:13:22.072Z,35.35
2022-08-04T18:15:51.276Z,35.34
2022-08-04T18:18:23.602Z,35.83
2022-08-04T18:20:51.030Z,36.26
2022-08-04T18:23:18.072Z,36.18
2022-08-04T18:25:51.166Z,36.41
2022-08-04T18:28:22.677Z,36.55
2022-08-04T18:30:55.423Z,36.64
2022-08-04T18:33:39.642Z,36.64
2022-08-04T18:36:33.963Z,36.66
2022-08-04T18:42:04.248Z,36.65
2022-08-04T18:44:32.782Z,36.68
2022-08-04T18:47:22.226Z,36.69
2022-08-04T18:52:45.269Z,37.03
2022-08-04T18:55:55.416Z,37.35
2022-08-04T18:58:06.119Z,37.24
2022-08-04T19:00:34.951Z,37.50
2022-08-04T19:03:02.585Z,37.48
2022-08-04T19:05:37.999Z,36.98
2022-08-04T19:08:32.486Z,37.32
2022-08-04T19:10:59.881Z,37.49
2022-08-04T19:13:29.689Z,37.71
2022-08-04T19:16:02.105Z,37.70
2022-08-04T19:18:31.108Z,37.47
2022-08-04T19:20:59.299Z,37.94
2022-08-04T19:24:27.956Z,37.68
2022-08-04T19:26:28.051Z,38.07
2022-08-04T19:28:56.128Z,38.10
2022-08-04T19:31:28.164Z,38.59
2022-08-04T19:34:08.448Z,38.39
2022-08-04T19:36:36.052Z,38.63
2022-08-04T19:39:11.544Z,39.03
2022-08-04T19:42:04.552Z,38.80
2022-08-04T19:44:29.879Z,38.72
2022-08-04T19:47:00.858Z,39.21
2022-08-04T19:50:04.697Z,39.49
2022-08-04T19:52:34.098Z,39.58
2022-08-04T19:55:10.717Z,39.31
2022-08-04T19:57:46.089Z,40.02
2022-08-04T20:00:14.317Z,40.28
2022-08-04T20:02:42.357Z,39.72
2022-08-04T20:05:09.673Z,40.02
2022-08-04T20:07:37.001Z,40.18
2022-08-04T20:10:07.613Z,40.39
2022-08-04T20:12:42.186Z,40.36
2022-08-04T20:15:11.046Z,40.40
2022-08-04T20:18:07.685Z,40.67
2022-08-04T20:20:29.357Z,40.50
2022-08-04T20:22:56.351Z,40.46
2022-08-04T20:25:36.650Z,40.95
2022-08-04T20:28:05.304Z,41.40
2022-08-04T20:30:35.584Z,41.56
2022-08-04T20:33:04.340Z,42.16
2022-08-04T20:35:45.927Z,41.89
2022-08-04T20:38:33.589Z,42.52
2022-08-04T20:41:02.061Z,42.75
2022-08-04T20:43:31.373Z,43.04
2022-08-04T20:45:59.390Z,43.41
2022-08-04T20:48:33.643Z,43.41
2022-08-04T20:51:02.098Z,43.94
2022-08-04T20:53:46.439Z,43.98
2022-08-04T20:56:19.094Z,43.91
2022-08-04T20:58:57.433Z,44.38
2022-08-04T21:04:30.209Z,44.58
2022-08-04T21:07:03.320Z,44.92
2022-08-04T21:09:38.199Z,44.96
2022-08-04T21:15:13.361Z,45.16
2022-08-04T21:17:59.559Z,45.37
2022-08-04T21:20:31.372Z,45.44
2022-08-04T21:23:02.304Z,45.63
2022-08-04T21:25:32.417Z,46.08
2022-08-04T21:28:09.759Z,46.31
2022-08-04T21:30:54.066Z,46.87
2022-08-04T21:33:44.717Z,47.17
2022-08-04T21:36:12.537Z,47.26
2022-08-04T21:38:39.698Z,47.21
2022-08-04T21:41:09.033Z,47.61
2022-08-04T21:43:43.130Z,47.96
2022-08-04T21:46:11.455Z,48.31
2022-08-04T21:48:39.734Z,48.46
2022-08-04T21:51:57.963Z,49.14
2022-08-04T21:54:17.167Z,49.37
2022-08-04T21:56:50.982Z,49.66
2022-08-04T21:59:23.960Z,49.67
2022-08-04T22:02:00.390Z,49.85
2022-08-04T22:04:28.735Z,49.74
2022-08-04T22:06:55.924Z,49.52
2022-08-04T22:09:23.035Z,49.63
2022-08-04T22:11:51.757Z,50.13
2022-08-04T22:14:27.471Z,50.30
2022-08-04T22:16:58.588Z,50.37
2022-08-04T22:19:40.363Z,50.43
2022-08-04T22:22:25.217Z,50.26
2022-08-04T22:24:55.445Z,50.69
2022-08-04T22:27:47.689Z,50.85
2022-08-04T22:30:23.268Z,51.29
2022-08-04T22:32:50.646Z,50.94
2022-08-04T22:35:36.442Z,51.23
2022-08-04T22:38:24.004Z,51.72
2022-08-04T22:41:09.857Z,51.53
2022-08-04T22:43:37.778Z,51.71
2022-08-04T22:46:27.531Z,52.01
2022-08-04T22:48:55.105Z,52.30
2022-08-04T22:51:23.229Z,52.57
2022-08-04T22:53:51.679Z,52.53
2022-08-04T22:56:37.394Z,52.76
2022-08-04T22:59:09.966Z,52.66
2022-08-04T23:01:59.693Z,52.61
2022-08-04T23:04:25.144Z,53.10
2022-08-04T23:06:54.412Z,52.95
2022-08-04T23:09:49.159Z,53.74
2022-08-04T23:12:27.236Z,53.38
2022-08-04T23:14:57.041Z,53.99
2022-08-04T23:17:25.036Z,54.04
2022-08-04T23:19:57.458Z,54.15
2022-08-04T23:22:42.154Z,54.16
2022-08-04T23:25:16.155Z,54.41
2022-08-04T23:27:51.380Z,54.81
2022-08-04T23:30:24.884Z,54.53
2022-08-04T23:32:58.151Z,54.96
2022-08-04T23:35:25.223Z,54.75
2022-08-04T23:37:57.866Z,54.57
2022-08-04T23:40:34.297Z,54.87
2022-08-04T23:43:17.212Z,54.75
2022-08-04T23:46:07.981Z,54.91
2022-08-04T23:48:40.210Z,55.17
2022-08-04T23:51:14.331Z,55.46
2022-08-04T23:54:02.464Z,55.50
2022-08-04T23:56:34.170Z,55.69
2022-08-04T23:59:03.995Z,55.35
